sensor_id;sensor_type;location;lat;lon;timestamp;temperature;humidity
14946;DHT22;7567;50.916;6.900;2022-07-23T00:00:31;19.20;1.00
14946;DHT22;7567;50.916;6.900;2022-07-23T00:02:57;19.10;1.00
14946;DHT22;7567;50.916;6.900;2022-07-23T00:05:23;19.10;1.00
14946;DHT22;7567;50.916;6.900;2022-07-23T00:07:50;19.00;1.00
14946;DHT22;7567;50.916;6.900;2022-07-23T00:10:16;19.00;1.00
14946;DHT22;7567;50.916;6.900;2022-07-23T00:12:42;19.00;1.00
14946;DHT22;7567;50.916;6.900;2022-07-23T00:15:09;19.00;1.00
14946;DHT22;7567;50.916;6.900;2022-07-23T00:17:35;19.00;1.00
14946;DHT22;7567;50.916;6.900;2022-07-23T00:20:02;19.00;1.00
14946;DHT22;7567;50.916;6.900;2022-07-23T00:22:28;18.90;1.00
14946;DHT22;7567;50.916;6.900;2022-07-23T00:24:55;18.90;1.00
14946;DHT22;7567;50.916;6.900;2022-07-23T00:27:22;18.90;12.00
14946;DHT22;7567;50.916;6.900;2022-07-23T00:29:48;18.80;38.70
14946;DHT22;7567;50.916;6.900;2022-07-23T00:32:14;18.70;80.20
14946;DHT22;7567;50.916;6.900;2022-07-23T00:34:40;18.60;60.40
14946;DHT22;7567;50.916;6.900;2022-07-23T00:37:06;18.70;52.70
14946;DHT22;7567;50.916;6.900;2022-07-23T00:39:32;18.60;64.30
14946;DHT22;7567;50.916;6.900;2022-07-23T00:41:58;18.60;82.60
14946;DHT22;7567;50.916;6.900;2022-07-23T00:44:26;18.60;73.00
14946;DHT22;7567;50.916;6.900;2022-07-23T00:46:55;18.60;83.50
14946;DHT22;7567;50.916;6.900;2022-07-23T00:49:27;18.50;99.90
14946;DHT22;7567;50.916;6.900;2022-07-23T00:51:54;18.50;99.90
14946;DHT22;7567;50.916;6.900;2022-07-23T00:54:23;18.50;99.90
14946;DHT22;7567;50.916;6.900;2022-07-23T00:56:49;18.40;99.90
14946;DHT22;7567;50.916;6.900;2022-07-23T00:59:15;18.40;99.90
14946;DHT22;7567;50.916;6.900;2022-07-23T01:01:42;18.40;99.90
14946;DHT22;7567;50.916;6.900;2022-07-23T01:04:10;18.50;99.90
14946;DHT22;7567;50.916;6.900;2022-07-23T01:06:38;18.50;99.90
14946;DHT22;7567;50.916;6.900;2022-07-23T01:09:06;18.40;99.90
14946;DHT22;7567;50.916;6.900;2022-07-23T01:11:36;18.40;99.90
14946;DHT22;7567;50.916;6.900;2022-07-23T01:14:16;18.30;99.90
14946;DHT22;7567;50.916;6.900;2022-07-23T01:16:44;18.30;99.90
14946;DHT22;7567;50.916;6.900;2022-07-23T01:19:10;18.30;99.90
14946;DHT22;7567;50.916;6.900;2022-07-23T01:21:39;18.20;99.90
14946;DHT22;7567;50.916;6.900;2022-07-23T01:24:06;18.20;99.90
14946;DHT22;7567;50.916;6.900;2022-07-23T01:26:32;18.20;99.90
14946;DHT22;7567;50.916;6.900;2022-07-23T01:28:59;18.20;99.90
14946;DHT22;7567;50.916;6.900;2022-07-23T01:31:25;18.20;99.90
14946;DHT22;7567;50.916;6.900;2022-07-23T01:33:52;18.20;99.90
14946;DHT22;7567;50.916;6.900;2022-07-23T01:36:18;18.10;99.90
14946;DHT22;7567;50.916;6.900;2022-07-23T01:38:44;18.10;99.90
14946;DHT22;7567;50.916;6.900;2022-07-23T01:41:10;18.00;99.90
14946;DHT22;7567;50.916;6.900;2022-07-23T01:43:36;17.90;99.90
14946;DHT22;7567;50.916;6.900;2022-07-23T01:46:02;17.90;99.90
14946;DHT22;7567;50.916;6.900;2022-07-23T01:48:28;17.90;99.90
14946;DHT22;7567;50.916;6.900;2022-07-23T01:50:54;17.90;99.90
14946;DHT22;7567;50.916;6.900;2022-07-23T01:53:20;17.80;99.90
14946;DHT22;7567;50.916;6.900;2022-07-23T01:55:47;17.80;99.90
14946;DHT22;7567;50.916;6.900;2022-07-23T01:58:13;17.80;99.90
14946;DHT22;7567;50.916;6.900;2022-07-23T02:00:39;17.70;99.90
14946;DHT22;7567;50.916;6.900;2022-07-23T02:03:05;17.60;99.90
14946;DHT22;7567;50.916;6.900;2022-07-23T02:05:31;17.60;99.90
14946;DHT22;7567;50.916;6.900;2022-07-23T02:07:58;17.60;99.90
14946;DHT22;7567;50.916;6.900;2022-07-23T02:10:25;17.50;99.90
14946;DHT22;7567;50.916;6.900;2022-07-23T02:12:51;17.40;99.90
14946;DHT22;7567;50.916;6.900;2022-07-23T02:15:17;17.30;99.90
14946;DHT22;7567;50.916;6.900;2022-07-23T02:17:43;17.30;99.90
14946;DHT22;7567;50.916;6.900;2022-07-23T02:20:10;17.30;99.90
14946;DHT22;7567;50.916;6.900;2022-07-23T02:22:37;17.30;99.90
14946;DHT22;7567;50.916;6.900;2022-07-23T02:25:04;17.30;99.90
14946;DHT22;7567;50.916;6.900;2022-07-23T02:27:31;17.30;99.90
14946;DHT22;7567;50.916;6.900;2022-07-23T02:29:57;17.30;99.90
14946;DHT22;7567;50.916;6.900;2022-07-23T02:32:24;17.20;99.90
14946;DHT22;7567;50.916;6.900;2022-07-23T02:34:50;17.20;99.90
14946;DHT22;7567;50.916;6.900;2022-07-23T02:37:17;17.20;99.90
14946;DHT22;7567;50.916;6.900;2022-07-23T02:39:43;17.20;99.90
14946;DHT22;7567;50.916;6.900;2022-07-23T02:42:10;17.20;99.90
14946;DHT22;7567;50.916;6.900;2022-07-23T02:44:36;17.20;99.90
14946;DHT22;7567;50.916;6.900;2022-07-23T02:47:02;17.20;99.90
14946;DHT22;7567;50.916;6.900;2022-07-23T02:49:28;17.20;99.90
14946;DHT22;7567;50.916;6.900;2022-07-23T02:51:54;17.20;99.90
14946;DHT22;7567;50.916;6.900;2022-07-23T02:54:20;17.10;99.90
14946;DHT22;7567;50.916;6.900;2022-07-23T02:56:46;17.00;99.90
14946;DHT22;7567;50.916;6.900;2022-07-23T02:59:12;16.90;99.90
14946;DHT22;7567;50.916;6.900;2022-07-23T03:01:38;16.90;99.90
14946;DHT22;7567;50.916;6.900;2022-07-23T03:04:04;16.90;99.90
14946;DHT22;7567;50.916;6.900;2022-07-23T03:06:30;16.90;99.90
14946;DHT22;7567;50.916;6.900;2022-07-23T03:08:56;16.80;99.90
14946;DHT22;7567;50.916;6.900;2022-07-23T03:11:22;16.70;99.90
14946;DHT22;7567;50.916;6.900;2022-07-23T03:13:48;16.70;99.90
14946;DHT22;7567;50.916;6.900;2022-07-23T03:16:14;16.70;99.90
14946;DHT22;7567;50.916;6.900;2022-07-23T03:18:40;16.50;99.90
14946;DHT22;7567;50.916;6.900;2022-07-23T03:21:07;16.50;99.90
14946;DHT22;7567;50.916;6.900;2022-07-23T03:23:33;16.40;99.90
14946;DHT22;7567;50.916;6.900;2022-07-23T03:25:59;16.40;99.90
14946;DHT22;7567;50.916;6.900;2022-07-23T03:28:25;16.40;99.90
14946;DHT22;7567;50.916;6.900;2022-07-23T03:30:51;16.30;99.90
14946;DHT22;7567;50.916;6.900;2022-07-23T03:33:18;16.30;99.90
14946;DHT22;7567;50.916;6.900;2022-07-23T03:35:45;16.20;99.90
14946;DHT22;7567;50.916;6.900;2022-07-23T03:38:12;16.20;99.90
14946;DHT22;7567;50.916;6.900;2022-07-23T03:40:38;16.20;99.90
14946;DHT22;7567;50.916;6.900;2022-07-23T03:43:04;16.20;99.90
14946;DHT22;7567;50.916;6.900;2022-07-23T03:45:31;16.20;99.90
14946;DHT22;7567;50.916;6.900;2022-07-23T03:47:57;16.20;99.90
14946;DHT22;7567;50.916;6.900;2022-07-23T03:50:23;16.10;99.90
14946;DHT22;7567;50.916;6.900;2022-07-23T03:52:49;16.10;99.90
14946;DHT22;7567;50.916;6.900;2022-07-23T03:55:15;16.10;99.90
14946;DHT22;7567;50.916;6.900;2022-07-23T03:57:42;16.00;99.90
14946;DHT22;7567;50.916;6.900;2022-07-23T04:00:08;16.00;99.90
14946;DHT22;7567;50.916;6.900;2022-07-23T04:02:36;16.00;99.90
14946;DHT22;7567;50.916;6.900;2022-07-23T04:05:03;16.00;99.90
14946;DHT22;7567;50.916;6.900;2022-07-23T04:07:30;16.00;99.90
14946;DHT22;7567;50.916;6.900;2022-07-23T04:09:56;16.10;99.90
14946;DHT22;7567;50.916;6.900;2022-07-23T04:12:22;16.10;99.90
14946;DHT22;7567;50.916;6.900;2022-07-23T04:14:48;16.10;99.90
14946;DHT22;7567;50.916;6.900;2022-07-23T04:17:14;16.10;99.90
14946;DHT22;7567;50.916;6.900;2022-07-23T04:19:40;16.10;99.90
14946;DHT22;7567;50.916;6.900;2022-07-23T04:22:07;16.10;99.90
14946;DHT22;7567;50.916;6.900;2022-07-23T04:24:33;16.10;99.90
14946;DHT22;7567;50.916;6.900;2022-07-23T04:27:00;16.20;99.90
14946;DHT22;7567;50.916;6.900;2022-07-23T04:29:26;16.20;99.90
14946;DHT22;7567;50.916;6.900;2022-07-23T04:31:51;16.20;99.90
14946;DHT22;7567;50.916;6.900;2022-07-23T04:34:18;16.30;99.90
14946;DHT22;7567;50.916;6.900;2022-07-23T04:36:44;16.30;99.90
14946;DHT22;7567;50.916;6.900;2022-07-23T04:39:10;16.30;99.90
14946;DHT22;7567;50.916;6.900;2022-07-23T04:41:36;16.30;99.90
14946;DHT22;7567;50.916;6.900;2022-07-23T04:44:02;16.30;99.90
14946;DHT22;7567;50.916;6.900;2022-07-23T04:46:28;16.30;99.90
14946;DHT22;7567;50.916;6.900;2022-07-23T04:48:54;16.40;99.90
14946;DHT22;7567;50.916;6.900;2022-07-23T04:51:20;16.40;99.90
14946;DHT22;7567;50.916;6.900;2022-07-23T04:53:46;16.40;99.90
14946;DHT22;7567;50.916;6.900;2022-07-23T04:56:12;16.50;99.90
14946;DHT22;7567;50.916;6.900;2022-07-23T04:58:38;16.50;99.90
14946;DHT22;7567;50.916;6.900;2022-07-23T05:01:04;16.60;99.90
14946;DHT22;7567;50.916;6.900;2022-07-23T05:03:30;16.60;99.90
14946;DHT22;7567;50.916;6.900;2022-07-23T05:05:56;16.70;99.90
14946;DHT22;7567;50.916;6.900;2022-07-23T05:08:22;16.70;99.90
14946;DHT22;7567;50.916;6.900;2022-07-23T05:10:49;16.80;99.90
14946;DHT22;7567;50.916;6.900;2022-07-23T05:13:16;16.80;99.90
14946;DHT22;7567;50.916;6.900;2022-07-23T05:15:43;16.80;99.90
14946;DHT22;7567;50.916;6.900;2022-07-23T05:18:08;16.80;99.90
14946;DHT22;7567;50.916;6.900;2022-07-23T05:20:34;16.90;99.90
14946;DHT22;7567;50.916;6.900;2022-07-23T05:23:00;16.90;99.90
14946;DHT22;7567;50.916;6.900;2022-07-23T05:25:26;16.90;99.90
14946;DHT22;7567;50.916;6.900;2022-07-23T05:27:52;17.00;99.90
14946;DHT22;7567;50.916;6.900;2022-07-23T05:30:18;17.10;99.90
14946;DHT22;7567;50.916;6.900;2022-07-23T05:32:44;17.10;99.90
14946;DHT22;7567;50.916;6.900;2022-07-23T05:38:41;17.30;99.90
14946;DHT22;7567;50.916;6.900;2022-07-23T05:41:07;17.30;99.90
14946;DHT22;7567;50.916;6.900;2022-07-23T05:43:33;17.40;99.90
14946;DHT22;7567;50.916;6.900;2022-07-23T05:45:59;17.50;99.90
14946;DHT22;7567;50.916;6.900;2022-07-23T05:48:25;17.50;99.90
14946;DHT22;7567;50.916;6.900;2022-07-23T05:50:51;17.50;99.90
14946;DHT22;7567;50.916;6.900;2022-07-23T05:53:17;17.50;99.90
14946;DHT22;7567;50.916;6.900;2022-07-23T05:55:43;17.40;99.90
14946;DHT22;7567;50.916;6.900;2022-07-23T05:58:09;17.50;99.90
14946;DHT22;7567;50.916;6.900;2022-07-23T06:00:35;17.50;99.90
14946;DHT22;7567;50.916;6.900;2022-07-23T06:03:01;17.60;99.90
14946;DHT22;7567;50.916;6.900;2022-07-23T06:05:27;17.80;99.90
14946;DHT22;7567;50.916;6.900;2022-07-23T06:07:53;17.90;99.90
14946;DHT22;7567;50.916;6.900;2022-07-23T06:10:19;18.10;99.90
14946;DHT22;7567;50.916;6.900;2022-07-23T06:13:01;18.30;99.90
14946;DHT22;7567;50.916;6.900;2022-07-23T06:15:26;18.40;99.90
14946;DHT22;7567;50.916;6.900;2022-07-23T06:17:52;18.50;99.90
14946;DHT22;7567;50.916;6.900;2022-07-23T06:20:18;18.70;99.90
14946;DHT22;7567;50.916;6.900;2022-07-23T06:22:44;18.70;99.90
14946;DHT22;7567;50.916;6.900;2022-07-23T06:25:10;18.80;99.90
14946;DHT22;7567;50.916;6.900;2022-07-23T06:27:36;18.80;99.90
14946;DHT22;7567;50.916;6.900;2022-07-23T06:30:02;18.90;99.90
14946;DHT22;7567;50.916;6.900;2022-07-23T06:32:28;19.00;99.90
14946;DHT22;7567;50.916;6.900;2022-07-23T06:34:54;19.10;99.90
14946;DHT22;7567;50.916;6.900;2022-07-23T06:37:20;19.20;99.90
14946;DHT22;7567;50.916;6.900;2022-07-23T06:39:46;19.30;99.90
14946;DHT22;7567;50.916;6.900;2022-07-23T06:42:31;19.30;99.90
14946;DHT22;7567;50.916;6.900;2022-07-23T06:44:57;19.40;99.90
14946;DHT22;7567;50.916;6.900;2022-07-23T06:47:23;19.50;99.90
14946;DHT22;7567;50.916;6.900;2022-07-23T06:49:49;19.60;99.90
14946;DHT22;7567;50.916;6.900;2022-07-23T06:52:15;19.70;99.90
14946;DHT22;7567;50.916;6.900;2022-07-23T06:54:41;19.90;99.90
14946;DHT22;7567;50.916;6.900;2022-07-23T06:57:13;19.90;99.90
14946;DHT22;7567;50.916;6.900;2022-07-23T06:59:39;20.00;99.90
14946;DHT22;7567;50.916;6.900;2022-07-23T07:02:06;20.20;99.90
14946;DHT22;7567;50.916;6.900;2022-07-23T07:04:33;20.30;99.90
14946;DHT22;7567;50.916;6.900;2022-07-23T07:06:59;20.40;99.90
14946;DHT22;7567;50.916;6.900;2022-07-23T07:09:25;20.60;99.90
14946;DHT22;7567;50.916;6.900;2022-07-23T07:11:51;20.70;99.90
14946;DHT22;7567;50.916;6.900;2022-07-23T07:14:17;20.80;99.90
14946;DHT22;7567;50.916;6.900;2022-07-23T07:16:42;20.90;99.90
14946;DHT22;7567;50.916;6.900;2022-07-23T07:19:09;21.10;99.90
14946;DHT22;7567;50.916;6.900;2022-07-23T07:21:35;21.10;99.90
14946;DHT22;7567;50.916;6.900;2022-07-23T07:24:01;21.10;99.90
14946;DHT22;7567;50.916;6.900;2022-07-23T07:26:27;21.20;99.90
14946;DHT22;7567;50.916;6.900;2022-07-23T07:28:53;21.40;99.90
14946;DHT22;7567;50.916;6.900;2022-07-23T07:31:19;21.60;99.90
14946;DHT22;7567;50.916;6.900;2022-07-23T07:33:44;21.40;99.90
14946;DHT22;7567;50.916;6.900;2022-07-23T07:36:10;21.50;99.90
14946;DHT22;7567;50.916;6.900;2022-07-23T07:38:36;21.80;99.90
14946;DHT22;7567;50.916;6.900;2022-07-23T07:41:02;22.00;99.90
14946;DHT22;7567;50.916;6.900;2022-07-23T07:43:28;22.20;89.50
14946;DHT22;7567;50.916;6.900;2022-07-23T07:45:54;22.30;56.70
14946;DHT22;7567;50.916;6.900;2022-07-23T07:48:20;22.40;60.20
14946;DHT22;7567;50.916;6.900;2022-07-23T07:50:46;22.60;71.70
14946;DHT22;7567;50.916;6.900;2022-07-23T07:53:12;22.70;1.00
14946;DHT22;7567;50.916;6.900;2022-07-23T07:55:38;22.60;1.00
14946;DHT22;7567;50.916;6.900;2022-07-23T07:58:04;22.70;1.00
14946;DHT22;7567;50.916;6.900;2022-07-23T08:00:30;22.80;1.00
14946;DHT22;7567;50.916;6.900;2022-07-23T08:02:57;22.70;1.00
14946;DHT22;7567;50.916;6.900;2022-07-23T08:05:25;22.70;1.00
14946;DHT22;7567;50.916;6.900;2022-07-23T08:07:51;22.80;1.00
14946;DHT22;7567;50.916;6.900;2022-07-23T08:10:17;22.90;1.00
14946;DHT22;7567;50.916;6.900;2022-07-23T08:12:45;22.90;1.00
14946;DHT22;7567;50.916;6.900;2022-07-23T08:15:13;22.90;1.00
14946;DHT22;7567;50.916;6.900;2022-07-23T08:17:39;22.90;1.00
14946;DHT22;7567;50.916;6.900;2022-07-23T08:20:07;22.80;1.00
14946;DHT22;7567;50.916;6.900;2022-07-23T08:25:13;22.70;1.00
14946;DHT22;7567;50.916;6.900;2022-07-23T08:27:40;23.10;1.00
14946;DHT22;7567;50.916;6.900;2022-07-23T08:30:06;23.40;1.00
14946;DHT22;7567;50.916;6.900;2022-07-23T08:32:33;23.40;1.00
14946;DHT22;7567;50.916;6.900;2022-07-23T08:34:59;23.60;1.00
14946;DHT22;7567;50.916;6.900;2022-07-23T08:37:25;23.90;1.00
14946;DHT22;7567;50.916;6.900;2022-07-23T08:39:51;23.90;1.00
14946;DHT22;7567;50.916;6.900;2022-07-23T08:42:18;23.80;1.00
14946;DHT22;7567;50.916;6.900;2022-07-23T08:44:45;23.90;1.00
14946;DHT22;7567;50.916;6.900;2022-07-23T08:47:13;24.20;1.00
14946;DHT22;7567;50.916;6.900;2022-07-23T08:49:41;24.20;99.90
14946;DHT22;7567;50.916;6.900;2022-07-23T08:52:07;24.40;1.00
14946;DHT22;7567;50.916;6.900;2022-07-23T08:54:34;24.10;99.90
14946;DHT22;7567;50.916;6.900;2022-07-23T08:57:00;23.50;99.90
14946;DHT22;7567;50.916;6.900;2022-07-23T08:59:26;23.20;99.90
14946;DHT22;7567;50.916;6.900;2022-07-23T09:01:53;23.00;1.00
14946;DHT22;7567;50.916;6.900;2022-07-23T09:04:19;23.30;1.00
14946;DHT22;7567;50.916;6.900;2022-07-23T09:06:45;23.50;1.00
14946;DHT22;7567;50.916;6.900;2022-07-23T09:09:18;23.40;99.90
14946;DHT22;7567;50.916;6.900;2022-07-23T09:11:49;23.80;1.00
14946;DHT22;7567;50.916;6.900;2022-07-23T09:14:42;23.90;1.00
14946;DHT22;7567;50.916;6.900;2022-07-23T09:17:13;24.30;1.00
14946;DHT22;7567;50.916;6.900;2022-07-23T09:19:40;24.50;99.90
14946;DHT22;7567;50.916;6.900;2022-07-23T09:22:28;24.60;1.00
14946;DHT22;7567;50.916;6.900;2022-07-23T09:25:05;24.70;99.90
14946;DHT22;7567;50.916;6.900;2022-07-23T09:27:56;24.90;99.90
14946;DHT22;7567;50.916;6.900;2022-07-23T09:30:48;25.10;99.90
14946;DHT22;7567;50.916;6.900;2022-07-23T09:33:37;25.30;1.00
14946;DHT22;7567;50.916;6.900;2022-07-23T09:36:06;25.40;99.90
14946;DHT22;7567;50.916;6.900;2022-07-23T09:38:49;25.40;1.00
14946;DHT22;7567;50.916;6.900;2022-07-23T09:41:23;25.30;99.90
14946;DHT22;7567;50.916;6.900;2022-07-23T09:44:07;25.10;99.90
14946;DHT22;7567;50.916;6.900;2022-07-23T09:46:35;25.10;99.90
14946;DHT22;7567;50.916;6.900;2022-07-23T09:49:12;25.20;1.00
14946;DHT22;7567;50.916;6.900;2022-07-23T09:51:50;25.40;1.00
14946;DHT22;7567;50.916;6.900;2022-07-23T09:56:48;25.60;99.90
14946;DHT22;7567;50.916;6.900;2022-07-23T09:59:16;25.60;99.90
14946;DHT22;7567;50.916;6.900;2022-07-23T10:01:45;25.90;99.90
14946;DHT22;7567;50.916;6.900;2022-07-23T10:04:12;26.00;8.60
14946;DHT22;7567;50.916;6.900;2022-07-23T10:06:39;26.00;1.00
14946;DHT22;7567;50.916;6.900;2022-07-23T10:09:07;26.00;99.90
14946;DHT22;7567;50.916;6.900;2022-07-23T10:11:34;26.00;99.90
14946;DHT22;7567;50.916;6.900;2022-07-23T10:14:05;26.20;99.90
14946;DHT22;7567;50.916;6.900;2022-07-23T10:16:37;26.30;1.00
14946;DHT22;7567;50.916;6.900;2022-07-23T10:19:04;26.20;1.00
14946;DHT22;7567;50.916;6.900;2022-07-23T10:21:39;26.10;1.00
14946;DHT22;7567;50.916;6.900;2022-07-23T10:30:00;26.20;90.90
14946;DHT22;7567;50.916;6.900;2022-07-23T10:35:56;26.50;99.90
14946;DHT22;7567;50.916;6.900;2022-07-23T10:38:47;26.50;1.00
14946;DHT22;7567;50.916;6.900;2022-07-23T10:41:39;26.80;99.90
14946;DHT22;7567;50.916;6.900;2022-07-23T10:44:20;27.00;1.00
14946;DHT22;7567;50.916;6.900;2022-07-23T10:47:03;27.10;99.90
14946;DHT22;7567;50.916;6.900;2022-07-23T10:49:41;27.20;99.90
14946;DHT22;7567;50.916;6.900;2022-07-23T10:54:44;27.20;99.90
14946;DHT22;7567;50.916;6.900;2022-07-23T10:57:13;27.20;1.00
14946;DHT22;7567;50.916;6.900;2022-07-23T11:02:30;27.40;1.00
14946;DHT22;7567;50.916;6.900;2022-07-23T11:05:04;27.40;99.90
14946;DHT22;7567;50.916;6.900;2022-07-23T11:07:30;27.20;99.90
14946;DHT22;7567;50.916;6.900;2022-07-23T11:09:56;27.40;1.00
14946;DHT22;7567;50.916;6.900;2022-07-23T11:15:13;27.60;1.00
14946;DHT22;7567;50.916;6.900;2022-07-23T11:22:39;27.60;1.00
14946;DHT22;7567;50.916;6.900;2022-07-23T11:25:06;27.60;99.90
14946;DHT22;7567;50.916;6.900;2022-07-23T11:27:42;27.70;1.00
14946;DHT22;7567;50.916;6.900;2022-07-23T11:30:11;27.60;1.00
14946;DHT22;7567;50.916;6.900;2022-07-23T11:32:50;27.80;1.00
14946;DHT22;7567;50.916;6.900;2022-07-23T11:35:23;28.00;1.00
14946;DHT22;7567;50.916;6.900;2022-07-23T11:37:52;28.10;1.00
14946;DHT22;7567;50.916;6.900;2022-07-23T11:40:25;27.90;99.90
14946;DHT22;7567;50.916;6.900;2022-07-23T11:43:02;27.90;99.90
14946;DHT22;7567;50.916;6.900;2022-07-23T11:45:34;28.10;62.00
14946;DHT22;7567;50.916;6.900;2022-07-23T11:48:01;28.00;99.90
14946;DHT22;7567;50.916;6.900;2022-07-23T11:50:27;28.00;99.90
14946;DHT22;7567;50.916;6.900;2022-07-23T11:52:54;27.90;99.90
14946;DHT22;7567;50.916;6.900;2022-07-23T11:55:21;27.80;1.00
14946;DHT22;7567;50.916;6.900;2022-07-23T11:57:47;27.80;1.00
14946;DHT22;7567;50.916;6.900;2022-07-23T12:00:15;27.80;1.00
14946;DHT22;7567;50.916;6.900;2022-07-23T12:02:47;28.00;1.00
14946;DHT22;7567;50.916;6.900;2022-07-23T12:05:16;28.10;19.40
14946;DHT22;7567;50.916;6.900;2022-07-23T12:07:43;28.10;99.90
14946;DHT22;7567;50.916;6.900;2022-07-23T12:10:23;28.40;99.90
14946;DHT22;7567;50.916;6.900;2022-07-23T12:12:56;28.50;99.90
14946;DHT22;7567;50.916;6.900;2022-07-23T12:15:25;28.50;39.60
14946;DHT22;7567;50.916;6.900;2022-07-23T12:17:53;28.60;1.00
14946;DHT22;7567;50.916;6.900;2022-07-23T12:20:22;28.40;19.60
14946;DHT22;7567;50.916;6.900;2022-07-23T12:22:51;28.50;92.20
14946;DHT22;7567;50.916;6.900;2022-07-23T12:25:20;28.80;99.90
14946;DHT22;7567;50.916;6.900;2022-07-23T12:27:59;29.00;87.00
14946;DHT22;7567;50.916;6.900;2022-07-23T12:30:38;28.80;99.90
14946;DHT22;7567;50.916;6.900;2022-07-23T12:33:05;28.60;1.00
14946;DHT22;7567;50.916;6.900;2022-07-23T12:35:40;28.70;1.00
14946;DHT22;7567;50.916;6.900;2022-07-23T12:38:11;28.80;1.00
14946;DHT22;7567;50.916;6.900;2022-07-23T12:41:00;28.90;1.00
14946;DHT22;7567;50.916;6.900;2022-07-23T12:43:29;29.00;1.00
14946;DHT22;7567;50.916;6.900;2022-07-23T12:46:05;29.10;1.00
14946;DHT22;7567;50.916;6.900;2022-07-23T12:48:34;29.10;99.90
14946;DHT22;7567;50.916;6.900;2022-07-23T12:51:06;29.20;1.00
14946;DHT22;7567;50.916;6.900;2022-07-23T12:53:41;29.40;1.00
14946;DHT22;7567;50.916;6.900;2022-07-23T13:06:37;29.10;1.00
14946;DHT22;7567;50.916;6.900;2022-07-23T13:09:06;29.00;1.00
14946;DHT22;7567;50.916;6.900;2022-07-23T13:11:33;28.90;1.00
14946;DHT22;7567;50.916;6.900;2022-07-23T13:13:59;28.80;1.00
14946;DHT22;7567;50.916;6.900;2022-07-23T13:16:27;28.90;1.00
14946;DHT22;7567;50.916;6.900;2022-07-23T13:18:53;29.10;1.00
14946;DHT22;7567;50.916;6.900;2022-07-23T13:21:19;29.30;1.00
14946;DHT22;7567;50.916;6.900;2022-07-23T13:23:45;29.20;1.00
14946;DHT22;7567;50.916;6.900;2022-07-23T13:26:11;29.20;1.00
14946;DHT22;7567;50.916;6.900;2022-07-23T13:28:37;29.20;1.00
14946;DHT22;7567;50.916;6.900;2022-07-23T13:31:03;29.30;1.00
14946;DHT22;7567;50.916;6.900;2022-07-23T13:33:30;29.50;1.00
14946;DHT22;7567;50.916;6.900;2022-07-23T13:35:56;29.50;1.00
14946;DHT22;7567;50.916;6.900;2022-07-23T13:38:22;29.60;1.00
14946;DHT22;7567;50.916;6.900;2022-07-23T13:40:50;29.60;1.00
14946;DHT22;7567;50.916;6.900;2022-07-23T13:43:18;29.50;1.00
14946;DHT22;7567;50.916;6.900;2022-07-23T13:45:45;29.70;1.00
14946;DHT22;7567;50.916;6.900;2022-07-23T13:48:12;29.50;1.00
14946;DHT22;7567;50.916;6.900;2022-07-23T13:50:39;29.60;1.00
14946;DHT22;7567;50.916;6.900;2022-07-23T13:53:09;29.80;1.00
14946;DHT22;7567;50.916;6.900;2022-07-23T13:55:38;30.00;1.00
14946;DHT22;7567;50.916;6.900;2022-07-23T13:58:05;29.80;1.00
14946;DHT22;7567;50.916;6.900;2022-07-23T14:00:32;29.70;1.00
14946;DHT22;7567;50.916;6.900;2022-07-23T14:03:00;29.70;1.00
14946;DHT22;7567;50.916;6.900;2022-07-23T14:05:26;29.80;1.00
14946;DHT22;7567;50.916;6.900;2022-07-23T14:07:52;29.80;1.00
14946;DHT22;7567;50.916;6.900;2022-07-23T14:10:20;29.80;1.00
14946;DHT22;7567;50.916;6.900;2022-07-23T14:12:47;29.80;1.00
14946;DHT22;7567;50.916;6.900;2022-07-23T14:15:14;29.70;1.00
14946;DHT22;7567;50.916;6.900;2022-07-23T14:17:41;29.80;1.00
14946;DHT22;7567;50.916;6.900;2022-07-23T14:20:10;29.80;1.00
14946;DHT22;7567;50.916;6.900;2022-07-23T14:22:36;29.80;1.00
14946;DHT22;7567;50.916;6.900;2022-07-23T14:25:03;29.80;1.00
14946;DHT22;7567;50.916;6.900;2022-07-23T14:27:30;29.80;1.00
14946;DHT22;7567;50.916;6.900;2022-07-23T14:29:56;30.00;1.00
14946;DHT22;7567;50.916;6.900;2022-07-23T14:32:22;30.00;1.00
14946;DHT22;7567;50.916;6.900;2022-07-23T14:34:49;30.00;1.00
14946;DHT22;7567;50.916;6.900;2022-07-23T14:37:15;30.10;1.00
14946;DHT22;7567;50.916;6.900;2022-07-23T14:39:42;29.90;1.00
14946;DHT22;7567;50.916;6.900;2022-07-23T14:42:09;29.80;1.00
14946;DHT22;7567;50.916;6.900;2022-07-23T14:44:36;29.80;1.00
14946;DHT22;7567;50.916;6.900;2022-07-23T14:47:03;29.80;1.00
14946;DHT22;7567;50.916;6.900;2022-07-23T14:49:33;29.80;1.00
14946;DHT22;7567;50.916;6.900;2022-07-23T14:51:59;29.70;1.00
14946;DHT22;7567;50.916;6.900;2022-07-23T14:54:26;29.60;1.00
14946;DHT22;7567;50.916;6.900;2022-07-23T14:56:54;29.60;1.00
14946;DHT22;7567;50.916;6.900;2022-07-23T14:59:20;29.40;1.00
14946;DHT22;7567;50.916;6.900;2022-07-23T15:01:46;29.50;1.00
14946;DHT22;7567;50.916;6.900;2022-07-23T15:04:12;29.60;1.00
14946;DHT22;7567;50.916;6.900;2022-07-23T15:06:38;29.60;1.00
14946;DHT22;7567;50.916;6.900;2022-07-23T15:09:05;29.70;1.00
14946;DHT22;7567;50.916;6.900;2022-07-23T15:11:31;29.90;1.00
14946;DHT22;7567;50.916;6.900;2022-07-23T15:14:03;29.80;1.00
14946;DHT22;7567;50.916;6.900;2022-07-23T15:16:29;29.60;1.00
14946;DHT22;7567;50.916;6.900;2022-07-23T15:18:56;29.70;1.00
14946;DHT22;7567;50.916;6.900;2022-07-23T15:21:22;29.70;1.00
14946;DHT22;7567;50.916;6.900;2022-07-23T15:23:48;29.90;1.00
14946;DHT22;7567;50.916;6.900;2022-07-23T15:26:14;30.10;1.00
14946;DHT22;7567;50.916;6.900;2022-07-23T15:28:41;29.90;1.00
14946;DHT22;7567;50.916;6.900;2022-07-23T15:31:07;29.80;1.00
14946;DHT22;7567;50.916;6.900;2022-07-23T15:33:34;29.70;1.00
14946;DHT22;7567;50.916;6.900;2022-07-23T15:36:01;29.60;1.00
14946;DHT22;7567;50.916;6.900;2022-07-23T15:38:27;29.50;1.00
14946;DHT22;7567;50.916;6.900;2022-07-23T15:40:54;29.40;1.00
14946;DHT22;7567;50.916;6.900;2022-07-23T15:43:21;29.50;1.00
14946;DHT22;7567;50.916;6.900;2022-07-23T15:45:48;29.60;1.00
14946;DHT22;7567;50.916;6.900;2022-07-23T15:48:14;29.60;1.00
14946;DHT22;7567;50.916;6.900;2022-07-23T15:50:40;29.60;1.00
14946;DHT22;7567;50.916;6.900;2022-07-23T15:53:06;29.20;1.00
14946;DHT22;7567;50.916;6.900;2022-07-23T15:55:33;29.20;1.00
14946;DHT22;7567;50.916;6.900;2022-07-23T15:57:59;28.90;1.00
14946;DHT22;7567;50.916;6.900;2022-07-23T16:00:25;28.80;1.00
14946;DHT22;7567;50.916;6.900;2022-07-23T16:02:51;28.70;1.00
14946;DHT22;7567;50.916;6.900;2022-07-23T16:05:17;28.80;1.00
14946;DHT22;7567;50.916;6.900;2022-07-23T16:07:43;28.90;1.00
14946;DHT22;7567;50.916;6.900;2022-07-23T16:10:09;29.10;1.00
14946;DHT22;7567;50.916;6.900;2022-07-23T16:12:36;29.00;1.00
14946;DHT22;7567;50.916;6.900;2022-07-23T16:15:03;29.10;1.00
14946;DHT22;7567;50.916;6.900;2022-07-23T16:17:29;29.10;1.00
14946;DHT22;7567;50.916;6.900;2022-07-23T16:19:55;29.00;1.00
14946;DHT22;7567;50.916;6.900;2022-07-23T16:22:21;28.90;1.00
14946;DHT22;7567;50.916;6.900;2022-07-23T16:24:48;28.90;1.00
14946;DHT22;7567;50.916;6.900;2022-07-23T16:27:14;28.80;1.00
14946;DHT22;7567;50.916;6.900;2022-07-23T16:29:40;28.70;1.00
14946;DHT22;7567;50.916;6.900;2022-07-23T16:32:06;28.80;1.00
14946;DHT22;7567;50.916;6.900;2022-07-23T16:34:32;28.60;1.00
14946;DHT22;7567;50.916;6.900;2022-07-23T16:36:58;28.70;1.00